Malinta, Ohio
Current Conditions -  °F | °C
As of 8:53 PM on Monday 20 Oct 2014 (Local Time) from KDFI Reporting Station
Overcast Overcast  
Wind Chill: 54°   Ceiling: 6500
Heat Index: 54°   Visibility: 8mi
Dew Point: 50°   Wind: 0mph
Humidity: 86%   Direction: NA
Pressure: 29.88"   Gusts: NA
Location:  41.32°N, 84.04°W
Report Text: KDFI 210053Z AUTO 00000KT 8SM OVC065 12/10 A2988 RMK AO2 SLP118 T01220100
Loading
Personal Weather Stations






























Interactive Weather Map
Tropical Storm Tracking
New forecast layout! Learn more

10-Day Weather Forecast

Advertisements
Track Severe Weather on mobile